createdAt,value
2019-06-07T00:02:00.514Z,87.00
2019-06-07T00:04:28.200Z,86.90
2019-06-07T00:06:55.737Z,86.90
2019-06-07T00:09:24.289Z,86.50
2019-06-07T00:11:51.624Z,86.10
2019-06-07T00:14:21.144Z,86.20
2019-06-07T00:16:48.315Z,87.00
2019-06-07T00:19:16.250Z,88.00
2019-06-07T00:24:15.950Z,89.10
2019-06-07T00:26:57.918Z,89.10
2019-06-07T00:29:15.440Z,90.50
2019-06-07T00:31:41.498Z,88.60
2019-06-07T00:34:10.720Z,89.00
2019-06-07T00:36:38.318Z,88.30
2019-06-07T00:39:07.766Z,87.80
2019-06-07T00:41:35.192Z,88.10
2019-06-07T00:44:02.730Z,88.30
2019-06-07T00:46:30.126Z,89.00
2019-06-07T00:48:57.533Z,89.10
2019-06-07T00:51:25.196Z,90.50
2019-06-07T00:53:52.595Z,89.80
2019-06-07T00:56:21.725Z,90.80
2019-06-07T00:59:09.676Z,90.40
2019-06-07T01:01:22.155Z,89.70
2019-06-07T01:03:47.856Z,90.00
2019-06-07T01:06:17.490Z,89.90
2019-06-07T01:08:44.844Z,90.10
2019-06-07T01:11:13.601Z,89.70
2019-06-07T01:13:41.406Z,89.90
2019-06-07T01:16:08.768Z,89.90
2019-06-07T01:18:42.876Z,89.50
2019-06-07T01:21:05.592Z,89.30
2019-06-07T01:24:11.040Z,89.40
2019-06-07T01:26:26.746Z,89.60
2019-06-07T01:28:52.217Z,89.90
2019-06-07T01:31:21.158Z,90.00
2019-06-07T01:33:51.243Z,90.20
2019-06-07T01:36:19.570Z,91.30
2019-06-07T01:38:47.290Z,91.30
2019-06-07T01:41:14.743Z,92.50
2019-06-07T01:43:42.145Z,93.20
2019-06-07T01:46:09.542Z,93.70
2019-06-07T01:48:48.971Z,93.80
2019-06-07T01:51:06.218Z,93.70
2019-06-07T01:53:33.626Z,93.50
2019-06-07T01:56:01.415Z,92.90
2019-06-07T01:58:29.255Z,93.80
2019-06-07T02:00:56.698Z,94.20
2019-06-07T02:03:26.945Z,94.70
2019-06-07T02:05:53.360Z,94.30
2019-06-07T02:08:22.194Z,93.00
2019-06-07T02:10:50.185Z,92.50
2019-06-07T02:13:18.529Z,92.20
2019-06-07T02:15:46.170Z,91.70
2019-06-07T02:18:13.626Z,92.70
2019-06-07T02:20:41.026Z,93.90
2019-06-07T02:23:08.459Z,94.40
2019-06-07T02:25:45.497Z,94.20
2019-06-07T02:28:27.363Z,93.40
2019-06-07T02:30:44.756Z,93.50
2019-06-07T02:33:05.255Z,93.60
2019-06-07T02:35:39.047Z,93.60
2019-06-07T02:38:01.871Z,92.80
2019-06-07T02:40:36.013Z,93.20
2019-06-07T02:42:58.618Z,93.10
2019-06-07T02:45:26.946Z,93.30
2019-06-07T02:47:55.514Z,93.30
2019-06-07T02:50:23.201Z,93.00
2019-06-07T02:52:50.718Z,93.00
2019-06-07T02:55:18.187Z,92.90
2019-06-07T02:57:45.666Z,92.90
2019-06-07T03:00:41.921Z,93.00
2019-06-07T03:02:44.669Z,92.90
2019-06-07T03:05:13.462Z,94.30
2019-06-07T03:07:45.071Z,93.40
2019-06-07T03:10:11.895Z,93.60
2019-06-07T03:12:41.640Z,93.60
2019-06-07T03:15:09.083Z,93.50
2019-06-07T03:17:48.888Z,93.60
2019-06-07T03:20:17.758Z,93.10
2019-06-07T03:22:45.172Z,93.00
2019-06-07T03:25:12.819Z,93.60
2019-06-07T03:27:49.553Z,94.40
2019-06-07T03:30:36.170Z,94.90
2019-06-07T03:32:47.228Z,94.10
2019-06-07T03:35:09.572Z,94.10
2019-06-07T03:37:40.722Z,94.40
2019-06-07T03:40:06.412Z,94.20
2019-06-07T03:42:34.872Z,94.80
2019-06-07T03:45:04.078Z,95.00
2019-06-07T03:47:33.494Z,94.70
2019-06-07T03:50:00.757Z,94.30
2019-06-07T03:52:31.587Z,94.10
2019-06-07T03:54:59.197Z,94.30
2019-06-07T03:57:28.652Z,93.80
2019-06-07T03:59:55.829Z,94.70
2019-06-07T04:02:23.304Z,94.70
2019-06-07T04:04:50.714Z,94.40
2019-06-07T04:07:18.125Z,94.30
2019-06-07T04:09:45.643Z,94.20
2019-06-07T04:12:13.048Z,93.80
2019-06-07T04:14:42.555Z,93.80
2019-06-07T04:17:09.980Z,94.10
2019-06-07T04:19:42.104Z,93.60
2019-06-07T04:22:06.587Z,92.90
2019-06-07T04:24:38.526Z,92.90
2019-06-07T04:27:03.431Z,93.20
2019-06-07T04:29:33.947Z,93.00
2019-06-07T04:32:01.122Z,94.60
2019-06-07T04:34:29.328Z,93.90
2019-06-07T04:37:00.538Z,94.30
2019-06-07T04:39:32.098Z,93.60
2019-06-07T04:41:59.664Z,98.30
2019-06-07T04:44:28.847Z,97.60
2019-06-07T04:46:58.371Z,96.40
2019-06-07T04:49:26.255Z,94.40
2019-06-07T04:51:55.474Z,93.90
2019-06-07T04:54:22.880Z,93.30
2019-06-07T04:56:50.302Z,92.90
2019-06-07T05:00:00.180Z,92.60
2019-06-07T05:01:46.952Z,92.90
2019-06-07T05:04:14.359Z,90.70
2019-06-07T05:06:42.484Z,91.20
2019-06-07T05:09:10.161Z,91.60
2019-06-07T05:11:39.335Z,91.40
2019-06-07T05:14:06.800Z,91.30
2019-06-07T05:16:36.632Z,90.80
2019-06-07T05:19:03.436Z,89.10
2019-06-07T05:21:51.525Z,88.60
2019-06-07T05:24:07.407Z,88.20
2019-06-07T05:26:30.486Z,87.70
2019-06-07T05:29:00.162Z,87.70
2019-06-07T05:31:27.970Z,87.60
2019-06-07T05:33:55.816Z,86.80
2019-06-07T05:36:23.682Z,87.00
2019-06-07T05:38:51.080Z,87.00
2019-06-07T05:41:18.475Z,86.50
2019-06-07T05:44:00.261Z,85.50
2019-06-07T05:46:15.248Z,83.80
2019-06-07T05:48:43.918Z,83.70
2019-06-07T05:51:11.606Z,82.80
2019-06-07T05:53:58.867Z,81.90
2019-06-07T05:56:26.794Z,82.90
2019-06-07T05:58:54.213Z,83.80
2019-06-07T06:03:50.890Z,82.60
2019-06-07T06:06:18.930Z,82.70
2019-06-07T06:08:47.944Z,80.60
2019-06-07T06:11:16.248Z,82.40
2019-06-07T06:14:05.672Z,82.20
2019-06-07T06:16:12.876Z,82.60
2019-06-07T06:18:41.321Z,82.40
2019-06-07T06:21:19.375Z,82.40
2019-06-07T06:23:40.516Z,82.50
2019-06-07T06:26:08.320Z,81.70
2019-06-07T06:28:37.188Z,81.40
2019-06-07T06:31:04.912Z,82.00
2019-06-07T06:33:34.781Z,81.80
2019-06-07T06:36:01.584Z,81.30
2019-06-07T06:38:28.984Z,80.60
2019-06-07T06:41:14.362Z,80.00
2019-06-07T06:43:25.772Z,80.30
2019-06-07T06:45:53.192Z,80.70
2019-06-07T06:48:21.868Z,80.40
2019-06-07T06:50:52.204Z,81.10
2019-06-07T06:53:18.460Z,79.40
2019-06-07T06:55:48.486Z,80.20
2019-06-07T06:58:15.792Z,79.30
2019-06-07T07:00:53.580Z,78.70
2019-06-07T07:05:48.638Z,77.80
2019-06-07T07:08:14.356Z,77.80
2019-06-07T07:10:43.382Z,76.10
2019-06-07T07:13:10.848Z,77.60
2019-06-07T07:15:38.276Z,76.80
2019-06-07T07:18:08.733Z,76.80
2019-06-07T07:20:35.124Z,75.10
2019-06-07T07:23:02.626Z,75.70
2019-06-07T07:25:30.068Z,75.80
2019-06-07T07:27:57.464Z,74.20
2019-06-07T07:30:39.829Z,74.40
2019-06-07T07:33:07.351Z,75.00
2019-06-07T07:35:34.690Z,74.60
2019-06-07T07:38:02.284Z,74.00
2019-06-07T07:40:57.238Z,74.20
2019-06-07T07:42:58.907Z,72.40
2019-06-07T07:45:26.392Z,71.60
2019-06-07T07:48:08.266Z,71.30
2019-06-07T07:50:22.996Z,66.60
2019-06-07T07:52:55.959Z,67.60
2019-06-07T07:55:20.543Z,68.10
2019-06-07T07:57:49.455Z,69.80
2019-06-07T08:00:49.446Z,68.70
2019-06-07T08:02:48.786Z,66.90
2019-06-07T08:05:23.498Z,66.20
2019-06-07T08:07:49.979Z,66.20
2019-06-07T08:10:15.184Z,66.80
2019-06-07T08:13:00.326Z,65.50
2019-06-07T08:15:12.232Z,66.20
2019-06-07T08:17:39.644Z,65.40
2019-06-07T08:20:07.597Z,65.70
2019-06-07T08:22:35.036Z,64.20
2019-06-07T08:25:04.475Z,65.10
2019-06-07T08:27:31.800Z,65.30
2019-06-07T08:30:25.381Z,65.20
2019-06-07T08:32:28.615Z,65.30
2019-06-07T08:35:01.698Z,64.60
2019-06-07T08:38:13.364Z,61.30
2019-06-07T08:39:56.732Z,63.50
2019-06-07T08:42:36.432Z,63.80
2019-06-07T08:44:54.334Z,61.90
2019-06-07T08:47:22.461Z,62.00
2019-06-07T08:49:50.664Z,62.50
2019-06-07T08:52:19.175Z,61.20
2019-06-07T08:54:47.150Z,59.40
2019-06-07T08:57:21.172Z,59.60
2019-06-07T08:59:43.774Z,58.70
2019-06-07T09:02:23.210Z,59.20
2019-06-07T09:04:40.427Z,57.90
2019-06-07T09:07:18.773Z,59.70
2019-06-07T09:09:37.383Z,58.70
2019-06-07T09:12:10.174Z,57.50
2019-06-07T09:14:34.067Z,58.10
2019-06-07T09:17:11.021Z,55.90
2019-06-07T09:19:31.235Z,57.90
2019-06-07T09:22:04.697Z,57.40
2019-06-07T09:24:28.290Z,56.90
2019-06-07T09:26:57.643Z,56.00
2019-06-07T09:29:25.222Z,54.90
2019-06-07T09:31:53.822Z,53.20
2019-06-07T09:34:21.385Z,55.50
2019-06-07T09:36:49.010Z,54.70
2019-06-07T09:39:18.425Z,53.50
2019-06-07T09:41:49.955Z,54.50
2019-06-07T09:44:25.084Z,55.00
2019-06-07T09:46:44.359Z,55.90
2019-06-07T09:49:21.110Z,50.90
2019-06-07T09:51:40.997Z,54.10
2019-06-07T09:54:11.201Z,55.00
2019-06-07T09:56:38.720Z,54.60
2019-06-07T09:59:09.124Z,55.80
2019-06-07T10:01:35.572Z,54.20
2019-06-07T10:04:08.240Z,54.10
2019-06-07T10:06:32.210Z,53.70
2019-06-07T10:11:28.871Z,53.70
2019-06-07T10:13:56.276Z,52.90
2019-06-07T10:16:24.334Z,53.50
2019-06-07T10:18:51.746Z,53.40
2019-06-07T10:21:20.342Z,53.70
2019-06-07T10:23:47.704Z,52.70
2019-06-07T10:26:15.115Z,50.50
2019-06-07T10:28:42.548Z,51.50
2019-06-07T10:31:11.466Z,51.10
2019-06-07T10:33:39.036Z,52.70
2019-06-07T10:36:06.687Z,50.20
2019-06-07T10:38:34.486Z,50.30
2019-06-07T10:41:02.877Z,50.50
2019-06-07T10:43:30.328Z,51.00
2019-06-07T10:45:57.985Z,51.00
2019-06-07T10:48:25.391Z,49.70
2019-06-07T10:50:52.832Z,50.10
2019-06-07T10:53:20.671Z,50.10
2019-06-07T10:55:48.418Z,49.90
2019-06-07T10:58:15.845Z,48.50
2019-06-07T11:00:43.298Z,47.90
2019-06-07T11:03:11.812Z,48.50
2019-06-07T11:05:39.369Z,46.40
2019-06-07T11:08:07.947Z,46.20
2019-06-07T11:10:35.528Z,45.50
2019-06-07T11:13:04.081Z,47.00
2019-06-07T11:15:31.969Z,46.60
2019-06-07T11:17:59.364Z,46.20
2019-06-07T11:20:26.810Z,44.80
2019-06-07T11:22:56.178Z,44.30
2019-06-07T11:25:23.607Z,42.50
2019-06-07T11:27:51.021Z,43.00
2019-06-07T11:30:18.794Z,43.10
2019-06-07T11:32:46.336Z,42.60
2019-06-07T11:35:15.514Z,43.80
2019-06-07T11:37:43.100Z,42.60
2019-06-07T11:40:27.768Z,42.80
2019-06-07T11:42:40.380Z,42.20
2019-06-07T11:45:10.498Z,43.20
2019-06-07T11:47:38.704Z,43.60
2019-06-07T11:50:07.283Z,40.20
2019-06-07T11:52:34.833Z,40.90
2019-06-07T11:55:02.705Z,39.90
2019-06-07T11:57:30.593Z,39.10
2019-06-07T11:59:58.025Z,40.90
2019-06-07T12:02:25.448Z,41.10
2019-06-07T12:04:52.871Z,41.20
2019-06-07T12:07:20.437Z,40.70
2019-06-07T12:09:56.254Z,39.10
2019-06-07T12:12:17.052Z,37.80
2019-06-07T12:14:44.501Z,38.80
2019-06-07T12:17:13.320Z,38.80
2019-06-07T12:19:40.856Z,38.60
2019-06-07T12:22:09.770Z,38.60
2019-06-07T12:24:37.474Z,37.90
2019-06-07T12:27:04.932Z,39.10
2019-06-07T12:29:34.002Z,38.90
2019-06-07T12:32:01.584Z,38.60
2019-06-07T12:34:28.910Z,39.20
2019-06-07T12:36:56.421Z,38.20
2019-06-07T12:39:23.798Z,37.90
2019-06-07T12:41:51.189Z,35.80
2019-06-07T12:44:18.888Z,36.90
2019-06-07T12:46:46.370Z,36.70
2019-06-07T12:49:15.531Z,37.60
2019-06-07T12:51:43.545Z,37.30
2019-06-07T12:54:10.948Z,36.90
2019-06-07T12:56:38.986Z,36.20
2019-06-07T12:59:06.472Z,35.30
2019-06-07T13:01:33.894Z,36.50
2019-06-07T13:04:01.377Z,36.30
2019-06-07T13:06:29.016Z,35.40
2019-06-07T13:08:56.432Z,36.70
2019-06-07T13:11:28.863Z,36.10
2019-06-07T13:13:53.080Z,35.80
2019-06-07T13:16:20.480Z,36.20
2019-06-07T13:18:47.903Z,35.00
2019-06-07T13:21:18.182Z,36.10
2019-06-07T13:23:44.673Z,35.40
2019-06-07T13:26:12.080Z,34.50
2019-06-07T13:28:39.664Z,34.70
2019-06-07T13:31:07.071Z,32.60
2019-06-07T13:33:38.653Z,34.20
2019-06-07T13:36:04.090Z,33.10
2019-06-07T13:38:31.498Z,33.20
2019-06-07T13:40:58.911Z,35.00
2019-06-07T13:43:27.992Z,34.70
2019-06-07T13:45:55.595Z,33.80
2019-06-07T13:48:23.358Z,29.90
2019-06-07T13:50:51.222Z,31.60
2019-06-07T13:53:18.994Z,33.70
2019-06-07T13:55:46.560Z,31.00
2019-06-07T13:58:14.193Z,28.30
2019-06-07T14:00:41.909Z,29.60
2019-06-07T14:03:09.320Z,26.80
2019-06-07T14:05:36.842Z,26.60
2019-06-07T14:08:04.291Z,26.70
2019-06-07T14:10:31.709Z,25.30
2019-06-07T14:12:59.168Z,26.60
2019-06-07T14:15:26.596Z,27.20
2019-06-07T14:17:54.000Z,26.60
2019-06-07T14:20:26.702Z,25.70
2019-06-07T14:22:54.393Z,26.10
2019-06-07T14:25:21.570Z,26.40
2019-06-07T14:27:49.192Z,26.80
2019-06-07T14:30:18.288Z,25.70
2019-06-07T14:32:47.530Z,25.80
2019-06-07T14:35:15.496Z,27.00
2019-06-07T14:37:42.932Z,26.40
2019-06-07T14:40:10.748Z,27.20
2019-06-07T14:42:38.672Z,25.90
2019-06-07T14:45:06.822Z,25.50
2019-06-07T14:47:34.340Z,25.20
2019-06-07T14:50:02.074Z,25.40
2019-06-07T14:52:30.734Z,25.90
2019-06-07T14:54:58.223Z,26.40
2019-06-07T14:57:26.924Z,26.00
2019-06-07T14:59:54.653Z,26.80
2019-06-07T15:02:22.066Z,26.60
2019-06-07T15:04:49.520Z,25.90
2019-06-07T15:07:16.946Z,26.00
2019-06-07T15:09:44.381Z,26.00
2019-06-07T15:12:24.713Z,25.80
2019-06-07T15:14:41.229Z,26.20
2019-06-07T15:17:08.636Z,25.30
2019-06-07T15:19:36.478Z,25.40
2019-06-07T15:22:03.960Z,25.80
2019-06-07T15:24:36.159Z,25.90
2019-06-07T15:27:02.512Z,25.90
2019-06-07T15:29:29.938Z,25.70
2019-06-07T15:31:57.356Z,25.60
2019-06-07T15:34:25.008Z,25.90
2019-06-07T15:36:52.441Z,26.80
2019-06-07T15:39:19.853Z,26.60
2019-06-07T15:41:47.353Z,26.50
2019-06-07T15:44:14.764Z,26.90
2019-06-07T15:46:42.208Z,27.20
2019-06-07T15:49:09.778Z,26.60
2019-06-07T15:51:38.513Z,27.00
2019-06-07T15:54:06.137Z,26.40
2019-06-07T15:56:34.668Z,26.20
2019-06-07T15:59:02.400Z,26.40
2019-06-07T16:01:31.171Z,25.80
2019-06-07T16:04:18.137Z,26.70
2019-06-07T16:06:45.570Z,26.70
2019-06-07T16:09:14.802Z,27.00
2019-06-07T16:11:43.702Z,27.40
2019-06-07T16:14:11.742Z,27.20
2019-06-07T16:16:39.167Z,27.20
2019-06-07T16:19:06.848Z,27.30
2019-06-07T16:21:35.278Z,27.10
2019-06-07T16:24:02.789Z,27.10
2019-06-07T16:26:30.257Z,27.00
2019-06-07T16:28:57.976Z,27.40
2019-06-07T16:31:25.392Z,28.30
2019-06-07T16:33:53.174Z,28.40
2019-06-07T16:36:20.578Z,30.20
2019-06-07T16:38:48.610Z,31.60
2019-06-07T16:41:18.122Z,32.80
2019-06-07T16:43:45.540Z,33.00
2019-06-07T16:46:12.961Z,33.10
2019-06-07T16:48:40.819Z,33.10
2019-06-07T16:51:08.535Z,32.80
2019-06-07T16:53:36.166Z,33.00
2019-06-07T16:56:04.582Z,32.10
2019-06-07T16:58:33.785Z,31.90
2019-06-07T17:01:01.194Z,31.60
2019-06-07T17:03:28.912Z,31.10
2019-06-07T17:05:56.525Z,31.10
2019-06-07T17:08:24.126Z,31.60
2019-06-07T17:10:52.258Z,31.50
2019-06-07T17:13:32.419Z,32.60
2019-06-07T17:15:49.044Z,33.70
2019-06-07T17:18:16.748Z,32.90
2019-06-07T17:20:45.311Z,33.60
2019-06-07T17:23:12.811Z,33.80
2019-06-07T17:25:41.344Z,32.70
2019-06-07T17:28:08.896Z,33.20
2019-06-07T17:30:36.370Z,32.80
2019-06-07T17:33:04.248Z,32.70
2019-06-07T17:35:31.636Z,34.00
2019-06-07T17:38:00.213Z,37.70
2019-06-07T17:40:27.659Z,37.80
2019-06-07T17:42:55.091Z,40.90
2019-06-07T17:45:22.722Z,41.70
2019-06-07T17:47:50.354Z,41.40
2019-06-07T17:50:18.160Z,41.00
2019-06-07T17:52:45.929Z,41.90
2019-06-07T17:55:14.541Z,42.50
2019-06-07T17:57:42.268Z,41.80
2019-06-07T18:02:40.660Z,43.00
2019-06-07T18:05:08.600Z,43.50
2019-06-07T18:07:36.340Z,43.10
2019-06-07T18:10:05.332Z,43.80
2019-06-07T18:12:32.755Z,43.40
2019-06-07T18:15:00.208Z,43.80
2019-06-07T18:17:34.561Z,45.80
2019-06-07T18:19:57.108Z,46.70
2019-06-07T18:22:24.529Z,45.50
2019-06-07T18:24:53.161Z,45.60
2019-06-07T18:27:21.146Z,48.30
2019-06-07T18:29:48.609Z,47.60
2019-06-07T18:32:16.410Z,47.20
2019-06-07T18:34:43.943Z,47.90
2019-06-07T18:37:11.371Z,48.10
2019-06-07T18:39:38.920Z,50.50
2019-06-07T18:42:06.320Z,51.00
2019-06-07T18:44:33.732Z,52.60
2019-06-07T18:47:01.212Z,50.90
2019-06-07T18:49:28.631Z,51.80
2019-06-07T18:52:15.302Z,52.00
2019-06-07T18:54:42.714Z,53.50
2019-06-07T18:57:12.317Z,53.70
2019-06-07T18:59:39.357Z,54.80
2019-06-07T19:02:07.076Z,53.70
2019-06-07T19:04:34.481Z,53.80
2019-06-07T19:07:01.917Z,54.60
2019-06-07T19:09:29.548Z,54.20
2019-06-07T19:11:56.955Z,56.30
2019-06-07T19:14:36.749Z,55.20
2019-06-07T19:16:53.999Z,55.30
2019-06-07T19:19:21.412Z,55.30
2019-06-07T19:21:49.894Z,56.60
2019-06-07T19:24:17.328Z,57.70
2019-06-07T19:26:44.731Z,57.80
2019-06-07T19:29:12.512Z,57.50
2019-06-07T19:31:39.915Z,61.80
2019-06-07T19:34:07.331Z,59.10
2019-06-07T19:36:47.977Z,60.40
2019-06-07T19:39:05.646Z,61.60
2019-06-07T19:41:33.051Z,61.20
2019-06-07T19:44:00.854Z,61.90
2019-06-07T19:46:28.257Z,62.10
2019-06-07T19:48:56.529Z,61.00
2019-06-07T19:51:24.484Z,62.40
2019-06-07T19:53:52.903Z,61.10
2019-06-07T19:56:20.420Z,63.30
2019-06-07T19:58:47.907Z,65.30
2019-06-07T20:01:15.332Z,64.90
2019-06-07T20:03:42.728Z,63.30
2019-06-07T20:06:10.591Z,62.80
2019-06-07T20:08:38.364Z,70.20
2019-06-07T20:11:05.793Z,65.00
2019-06-07T20:13:33.467Z,65.40
2019-06-07T20:16:00.956Z,65.20
2019-06-07T20:18:28.340Z,65.40
2019-06-07T20:20:58.536Z,64.60
2019-06-07T20:23:28.050Z,65.50
2019-06-07T20:25:55.344Z,65.30
2019-06-07T20:28:22.972Z,67.40
2019-06-07T20:30:52.269Z,67.60
2019-06-07T20:33:19.828Z,68.20
2019-06-07T20:35:47.578Z,66.70
2019-06-07T20:38:14.995Z,66.30
2019-06-07T20:40:42.408Z,67.30
2019-06-07T20:43:10.080Z,67.00
2019-06-07T20:45:37.500Z,68.40
2019-06-07T20:48:06.191Z,68.10
2019-06-07T20:50:35.845Z,68.30
2019-06-07T20:53:03.261Z,67.80
2019-06-07T20:55:30.769Z,68.00
2019-06-07T20:57:59.102Z,68.70
2019-06-07T21:00:26.681Z,69.30
2019-06-07T21:02:54.087Z,69.90
2019-06-07T21:05:22.867Z,70.40
2019-06-07T21:07:50.596Z,69.80
2019-06-07T21:10:18.269Z,72.60
2019-06-07T21:12:45.731Z,70.10
2019-06-07T21:15:14.696Z,70.70
2019-06-07T21:17:42.459Z,70.30
2019-06-07T21:20:14.003Z,70.50
2019-06-07T21:22:39.399Z,69.60
2019-06-07T21:25:07.322Z,72.40
2019-06-07T21:27:35.156Z,70.90
2019-06-07T21:30:03.407Z,69.90
2019-06-07T21:32:30.944Z,71.00
2019-06-07T21:34:58.397Z,71.10
2019-06-07T21:37:25.819Z,72.20
2019-06-07T21:39:53.235Z,70.30
2019-06-07T21:42:21.050Z,70.40
2019-06-07T21:44:48.443Z,72.90
2019-06-07T21:47:15.885Z,70.60
2019-06-07T21:49:43.744Z,71.00
2019-06-07T21:52:11.135Z,71.90
2019-06-07T21:54:40.394Z,71.50
2019-06-07T21:57:09.002Z,71.80
2019-06-07T21:59:36.487Z,71.60
2019-06-07T22:02:05.353Z,73.80
2019-06-07T22:04:35.072Z,73.50
2019-06-07T22:07:03.307Z,73.20
2019-06-07T22:09:31.064Z,75.90
2019-06-07T22:11:58.504Z,72.90
2019-06-07T22:14:25.923Z,73.00
2019-06-07T22:16:53.336Z,73.90
2019-06-07T22:19:20.864Z,73.90
2019-06-07T22:22:01.750Z,73.00
2019-06-07T22:24:18.797Z,72.70
2019-06-07T22:26:46.532Z,72.90
2019-06-07T22:29:15.748Z,72.90
2019-06-07T22:31:43.284Z,72.40
2019-06-07T22:34:10.864Z,72.90
2019-06-07T22:36:38.295Z,73.60
2019-06-07T22:39:07.538Z,74.50
2019-06-07T22:41:35.189Z,77.70
2019-06-07T22:44:02.807Z,76.80
2019-06-07T22:46:37.248Z,75.40
2019-06-07T22:48:59.625Z,74.10
2019-06-07T22:51:27.028Z,73.90
2019-06-07T22:53:54.505Z,74.00
2019-06-07T22:56:42.087Z,74.50
2019-06-07T22:59:14.093Z,74.40
2019-06-07T23:01:39.811Z,73.50
2019-06-07T23:04:08.445Z,73.10
2019-06-07T23:06:36.229Z,72.80
2019-06-07T23:09:05.523Z,72.60
2019-06-07T23:11:32.979Z,72.90
2019-06-07T23:14:00.384Z,73.50
2019-06-07T23:16:27.799Z,74.70
2019-06-07T23:18:55.382Z,73.80
2019-06-07T23:21:22.799Z,74.10
2019-06-07T23:23:50.205Z,75.50
2019-06-07T23:26:18.330Z,75.40
2019-06-07T23:28:45.766Z,74.90
2019-06-07T23:31:14.350Z,75.50
2019-06-07T23:33:42.079Z,77.30
2019-06-07T23:36:10.905Z,75.50
2019-06-07T23:38:38.435Z,73.80
2019-06-07T23:41:05.871Z,73.10
2019-06-07T23:43:33.274Z,72.80
2019-06-07T23:46:00.672Z,72.90
2019-06-07T23:48:28.392Z,72.70
2019-06-07T23:50:55.822Z,72.60
2019-06-07T23:53:23.203Z,72.40
2019-06-07T23:55:50.663Z,71.90
2019-06-07T23:58:18.608Z,71.70
